Time;durP1;ratioP1;P1;durP2;ratioP2;P2;SDS_P1;SDS_P2;PMS_P1;PMS_P2;Temp;Humidity;BMP_temperature;BMP_pressure;BME280_temperature;BME280_humidity;BME280_pressure;Samples;Min_cycle;Max_cycle;Signal;HPM_P1;HPM_P2
2022/09/17 00:00:42;;;;;;;24.27;2.63;;;8.90;99.90;;;;;;5090515;28;20048;-46
2022/09/17 00:03:10;;;;;;;24.42;1.92;;;;;;;;;;5089284;28;20043;-44
2022/09/17 00:05:36;;;;;;;20.70;1.95;;;;;;;;;;5088289;28;20055;-44
2022/09/17 00:08:04;;;;;;;22.90;2.85;;;8.70;99.90;;;;;;5098069;28;20048;-45
2022/09/17 00:10:30;;;;;;;20.02;1.65;;;8.70;99.90;;;;;;5089836;28;20039;-45
2022/09/17 00:12:56;;;;;;;20.85;2.72;;;9.00;99.90;;;;;;5089001;28;20036;-44
2022/09/17 00:15:25;;;;;;;25.48;1.67;;;;;;;;;;5089077;28;20046;-47
2022/09/17 00:17:56;;;;;;;28.42;2.33;;;;;;;;;;5089553;28;20074;-44
2022/09/17 00:20:22;;;;;;;21.20;1.58;;;;;;;;;;5090088;28;20059;-44
2022/09/17 00:22:48;;;;;;;19.75;1.80;;;;;;;;;;5089675;28;20040;-46
2022/09/17 00:25:15;;;;;;;33.30;2.53;;;;;;;;;;5089169;28;20035;-45
2022/09/17 00:27:41;;;;;;;23.98;1.75;;;;;;;;;;5089146;28;20054;-43
2022/09/17 00:30:07;;;;;;;24.73;1.98;;;;;;;;;;5088775;28;20044;-46
2022/09/17 00:32:33;;;;;;;13.80;1.20;;;;;;;;;;5089198;28;20063;-46
2022/09/17 00:34:59;;;;;;;21.83;1.52;;;;;;;;;;5089030;28;20481;-45
2022/09/17 00:37:26;;;;;;;17.50;1.55;;;;;;;;;;5088774;28;20040;-44
2022/09/17 00:39:52;;;;;;;25.25;1.95;;;;;;;;;;5088658;28;20125;-45
2022/09/17 00:42:18;;;;;;;21.00;1.55;;;;;;;;;;5087791;28;20668;-45
2022/09/17 00:44:52;;;;;;;15.15;1.45;;;;;;;;;;5088070;28;20353;-44
2022/09/17 00:47:37;;;;;;;24.15;2.38;;;;;;;;;;5087451;28;20040;-45
2022/09/17 00:50:07;;;;;;;20.13;1.98;;;;;;;;;;5088432;28;20051;-44
2022/09/17 00:52:35;;;;;;;32.05;2.40;;;;;;;;;;5088169;28;20516;-45
2022/09/17 00:55:12;;;;;;;25.25;2.53;;;;;;;;;;5088182;28;20036;-44
2022/09/17 00:57:39;;;;;;;17.40;2.05;;;;;;;;;;5088765;28;20048;-46
2022/09/17 01:00:07;;;;;;;28.58;1.85;;;;;;;;;;5089250;28;20048;-46
2022/09/17 01:02:34;;;;;;;16.15;1.63;;;;;;;;;;5088625;28;20573;-46
2022/09/17 01:05:00;;;;;;;12.23;1.10;;;;;;;;;;5088553;28;20135;-45
2022/09/17 01:07:44;;;;;;;13.48;1.42;;;;;;;;;;5088041;28;20060;-44
2022/09/17 01:10:29;;;;;;;11.68;1.00;;;;;;;;;;5067920;28;20584;-45
2022/09/17 01:13:14;;;;;;;15.95;1.20;;;;;;;;;;5068380;28;20137;-45
2022/09/17 01:16:06;;;;;;;9.07;0.80;;;;;;;;;;5069010;28;20457;-44
2022/09/17 01:18:48;;;;;;;15.55;0.98;;;;;;;;;;5064558;28;20056;-45
2022/09/17 01:21:28;;;;;;;18.92;2.00;;;;;;;;;;5068371;28;20379;-45
2022/09/17 01:23:54;;;;;;;19.05;1.83;;;;;;;;;;5067758;28;20044;-44
2022/09/17 01:26:38;;;;;;;18.55;1.08;;;;;;;;;;5067737;28;20128;-46
2022/09/17 01:29:23;;;;;;;14.35;1.20;;;;;;;;;;5067558;28;20079;-45
2022/09/17 01:31:58;;;;;;;19.02;1.02;;;;;;;;;;5068258;28;20055;-45
2022/09/17 01:34:34;;;;;;;18.40;1.55;;;;;;;;;;5067602;28;20060;-45
2022/09/17 01:37:18;;;;;;;18.13;1.77;;;;;;;;;;5067062;28;20567;-46
2022/09/17 01:39:51;;;;;;;27.15;1.77;;;;;;;;;;5067820;28;20040;-48
2022/09/17 01:42:43;;;;;;;17.25;1.60;;;;;;;;;;5066804;28;20055;-48
2022/09/17 01:45:10;;;;;;;19.35;2.08;;;;;;;;;;5028771;28;20062;-46
2022/09/17 01:47:38;;;;;;;21.10;1.30;;;;;;;;;;5067110;28;20053;-45
2022/09/17 01:50:06;;;;;;;13.15;1.25;;;;;;;;;;5067365;28;20047;-48
2022/09/17 01:52:33;;;;;;;13.18;0.98;;;;;;;;;;5065989;28;20036;-46
2022/09/17 01:55:01;;;;;;;13.25;0.75;;;;;;;;;;5067390;28;20058;-48
2022/09/17 01:57:36;;;;;;;28.33;1.33;;;8.30;99.90;;;;;;5067232;28;20047;-45
2022/09/17 02:00:14;;;;;;;20.77;1.85;;;8.10;99.90;;;;;;5067560;28;20041;-49
2022/09/17 02:02:49;;;;;;;21.52;2.35;;;;;;;;;;5067132;28;20048;-45
2022/09/17 02:05:29;;;;;;;16.60;1.65;;;8.00;99.90;;;;;;5066759;28;20056;-46
2022/09/17 02:08:17;;;;;;;20.33;1.73;;;7.90;99.90;;;;;;5070519;28;20063;-45
2022/09/17 02:10:46;;;;;;;15.65;2.90;;;7.90;99.90;;;;;;5086148;28;20052;-45
2022/09/17 02:13:44;;;;;;;21.65;3.97;;;7.90;99.90;;;;;;5086411;28;20036;-46
2022/09/17 02:16:17;;;;;;;21.70;1.50;;;7.90;99.90;;;;;;5039592;28;20080;-45
2022/09/17 02:18:53;;;;;;;19.45;1.27;;;7.80;99.90;;;;;;5086858;28;20135;-45
2022/09/17 02:21:31;;;;;;;26.30;2.13;;;8.30;99.90;;;;;;5086118;28;20097;-47
2022/09/17 02:24:13;;;;;;;12.38;1.42;;;7.70;99.90;;;;;;5086315;28;20047;-45
2022/09/17 02:27:09;;;;;;;22.20;2.20;;;7.70;99.90;;;;;;5086822;28;20098;-46
2022/09/17 02:29:37;;;;;;;21.38;1.73;;;7.70;99.90;;;;;;5047656;28;20593;-48
2022/09/17 02:32:04;;;;;;;22.05;1.90;;;8.30;99.90;;;;;;5085917;28;20260;-45
2022/09/17 02:34:30;;;;;;;14.90;1.40;;;7.50;99.90;;;;;;5085837;28;20462;-47
2022/09/17 02:36:59;;;;;;;20.63;1.85;;;7.50;99.90;;;;;;5086331;28;20055;-46
2022/09/17 02:39:26;;;;;;;27.35;2.70;;;7.50;99.90;;;;;;5085622;28;20051;-46
2022/09/17 02:42:16;;;;;;;24.10;1.65;;;7.40;99.90;;;;;;5085950;28;20076;-45
2022/09/17 02:45:03;;;;;;;25.65;1.52;;;7.40;99.90;;;;;;5086428;28;20532;-45
2022/09/17 02:48:06;;;;;;;17.63;1.42;;;7.40;99.90;;;;;;5085738;28;20051;-44
2022/09/17 02:51:15;;;;;;;15.00;1.13;;;7.30;99.90;;;;;;5085972;28;20055;-45
2022/09/17 02:54:23;;;;;;;15.27;1.38;;;7.30;99.90;;;;;;5018524;28;20062;-45
2022/09/17 02:57:00;;;;;;;20.88;1.83;;;7.50;99.90;;;;;;5039131;28;20119;-46
2022/09/17 02:59:36;;;;;;;28.42;2.28;;;7.50;99.90;;;;;;5086244;28;20127;-46
2022/09/17 03:02:15;;;;;;;16.60;1.60;;;7.70;99.90;;;;;;5086616;28;20851;-44
2022/09/17 03:04:41;;;;;;;20.98;1.73;;;7.80;99.90;;;;;;5085766;28;20127;-45
2022/09/17 03:07:10;;;;;;;21.80;2.05;;;8.70;99.90;;;;;;5085782;28;20056;-45
2022/09/17 03:09:36;;;;;;;17.25;1.63;;;7.80;99.90;;;;;;5086454;28;20067;-45
2022/09/17 03:12:03;;;;;;;26.73;4.60;;;8.50;99.90;;;;;;5087156;28;20040;-45
2022/09/17 03:14:28;;;;;;;16.10;1.50;;;7.80;99.90;;;;;;5086897;28;20103;-46
2022/09/17 03:16:54;;;;;;;19.00;1.42;;;7.70;99.90;;;;;;5087094;28;20430;-45
2022/09/17 03:19:19;;;;;;;16.52;2.78;;;7.60;99.90;;;;;;5086669;28;20059;-45
2022/09/17 03:21:45;;;;;;;17.00;1.42;;;8.10;99.90;;;;;;5087137;28;20500;-46
2022/09/17 03:24:11;;;;;;;20.77;1.73;;;7.50;99.90;;;;;;5086814;28;20522;-44
2022/09/17 03:26:38;;;;;;;20.35;1.92;;;7.60;99.90;;;;;;5085676;28;20071;-45
2022/09/17 03:29:04;;;;;;;21.15;1.58;;;7.40;99.90;;;;;;5086602;28;20051;-49
2022/09/17 03:31:30;;;;;;;17.45;1.65;;;7.60;99.90;;;;;;5086067;28;20048;-47
2022/09/17 03:33:57;;;;;;;22.02;2.45;;;7.50;99.90;;;;;;5086768;28;20032;-48
2022/09/17 03:36:23;;;;;;;26.08;1.50;;;7.40;99.90;;;;;;5068594;28;20051;-47
2022/09/17 03:38:56;;;;;;;19.27;1.80;;;7.40;99.90;;;;;;5086711;28;20558;-47
2022/09/17 03:41:22;;;;;;;17.20;2.08;;;7.30;99.90;;;;;;5086153;28;20043;-46
2022/09/17 03:43:48;;;;;;;13.65;1.15;;;7.20;99.90;;;;;;5086067;28;20497;-49
2022/09/17 03:46:14;;;;;;;12.50;1.40;;;7.20;99.90;;;;;;5085985;28;20049;-48
2022/09/17 03:48:40;;;;;;;19.08;1.27;;;7.10;99.90;;;;;;5067216;28;20048;-45
2022/09/17 03:51:05;;;;;;;16.55;2.22;;;7.30;99.90;;;;;;5086031;28;20048;-46
2022/09/17 03:53:32;;;;;;;16.50;1.40;;;7.60;99.90;;;;;;5085991;28;20039;-47
2022/09/17 03:55:59;;;;;;;17.77;1.00;;;7.00;99.90;;;;;;5086055;28;20036;-49
2022/09/17 03:58:26;;;;;;;19.92;1.40;;;7.90;99.90;;;;;;5085104;28;20048;-45
2022/09/17 04:00:52;;;;;;;23.25;1.85;;;7.10;99.90;;;;;;5085349;28;20723;-46
2022/09/17 04:03:18;;;;;;;22.45;1.73;;;7.20;99.90;;;;;;5085262;28;20067;-49
2022/09/17 04:05:44;;;;;;;15.45;1.73;;;7.20;99.90;;;;;;5085288;28;20088;-46
2022/09/17 04:08:09;;;;;;;20.48;1.77;;;7.80;99.90;;;;;;5085237;28;20631;-46
2022/09/17 04:10:35;;;;;;;24.75;1.60;;;8.20;99.90;;;;;;5085306;28;20036;-49
2022/09/17 04:13:01;;;;;;;14.25;1.00;;;7.50;99.90;;;;;;5086031;28;20132;-46
2022/09/17 04:15:26;;;;;;;12.95;1.48;;;8.30;99.90;;;;;;5087142;28;20126;-49
2022/09/17 04:17:58;;;;;;;21.17;1.40;;;9.40;99.90;;;;;;5089619;28;20131;-48
2022/09/17 04:20:25;;;;;;;13.07;1.00;;;7.60;99.90;;;;;;5089661;28;20101;-48
2022/09/17 04:22:51;;;;;;;16.88;0.88;;;7.60;99.90;;;;;;5089898;28;20039;-46
2022/09/17 04:25:17;;;;;;;12.68;0.98;;;7.60;99.90;;;;;;5089419;28;20039;-48
2022/09/17 04:27:44;;;;;;;13.60;0.90;;;8.50;99.90;;;;;;5088812;28;20456;-50
2022/09/17 04:30:11;;;;;;;8.93;0.65;;;7.60;99.90;;;;;;5088843;28;20565;-48
2022/09/17 04:32:36;;;;;;;14.13;0.77;;;7.40;99.90;;;;;;5088564;28;20078;-48
2022/09/17 04:35:03;;;;;;;14.00;1.02;;;7.40;99.90;;;;;;5088965;28;20036;-49
2022/09/17 04:37:29;;;;;;;18.77;0.95;;;7.30;99.90;;;;;;5089052;28;20040;-47
2022/09/17 04:39:54;;;;;;;12.75;1.00;;;8.10;99.90;;;;;;5088873;28;20036;-47
2022/09/17 04:42:20;;;;;;;17.67;1.55;;;7.20;99.90;;;;;;5088823;28;20089;-47
2022/09/17 04:44:46;;;;;;;12.43;0.90;;;7.10;99.90;;;;;;5088909;28;20050;-46
2022/09/17 04:47:11;;;;;;;17.08;1.17;;;7.10;99.90;;;;;;5089023;28;20044;-48
2022/09/17 04:49:37;;;;;;;13.13;1.23;;;7.80;99.90;;;;;;5088412;28;20043;-49
2022/09/17 04:52:02;;;;;;;15.38;1.05;;;7.10;99.90;;;;;;5088829;28;20071;-49
2022/09/17 04:54:28;;;;;;;17.30;1.10;;;7.10;99.90;;;;;;5088513;28;20464;-50
2022/09/17 04:56:54;;;;;;;14.75;0.98;;;7.10;99.90;;;;;;5088695;28;20573;-47
2022/09/17 04:59:19;;;;;;;12.02;0.90;;;7.00;99.90;;;;;;5088331;28;20050;-46
2022/09/17 05:01:45;;;;;;;16.20;1.40;;;7.10;99.90;;;;;;5088535;28;20054;-48
2022/09/17 05:04:11;;;;;;;14.77;1.50;;;7.00;99.90;;;;;;5088630;28;20043;-47
2022/09/17 05:06:37;;;;;;;17.60;1.02;;;7.00;99.90;;;;;;5087747;28;20398;-49
2022/09/17 05:09:02;;;;;;;22.88;1.80;;;7.00;99.90;;;;;;5088467;28;20107;-47
2022/09/17 05:11:28;;;;;;;16.55;1.00;;;6.90;99.90;;;;;;5087336;28;20040;-47
2022/09/17 05:13:54;;;;;;;16.27;1.10;;;6.90;99.90;;;;;;5087821;28;20043;-47
2022/09/17 05:16:20;;;;;;;16.77;1.20;;;6.90;99.90;;;;;;5087903;28;20180;-47
2022/09/17 05:18:46;;;;;;;11.82;0.85;;;6.80;99.90;;;;;;5087616;28;20268;-49
2022/09/17 05:21:13;;;;;;;20.55;2.13;;;6.80;99.90;;;;;;5088124;28;20076;-46
2022/09/17 05:23:38;;;;;;;20.75;1.50;;;7.70;99.90;;;;;;5087799;28;20489;-45
2022/09/17 05:26:04;;;;;;;21.13;1.25;;;6.80;99.90;;;;;;5087893;28;20100;-46
2022/09/17 05:28:30;;;;;;;12.85;0.90;;;6.70;99.90;;;;;;5087235;28;20402;-45
2022/09/17 05:30:58;;;;;;;15.75;0.55;;;6.70;99.90;;;;;;5068922;28;20047;-45
2022/09/17 05:33:24;;;;;;;17.08;1.10;;;6.70;99.90;;;;;;5087385;28;20040;-46
2022/09/17 05:35:50;;;;;;;21.33;1.13;;;6.70;99.90;;;;;;5087503;28;20105;-46
2022/09/17 05:38:17;;;;;;;15.43;1.00;;;6.70;99.90;;;;;;5087893;28;20112;-46
2022/09/17 05:40:47;;;;;;;11.48;1.48;;;7.60;99.90;;;;;;5087360;28;20051;-46
2022/09/17 05:43:13;;;;;;;12.90;1.20;;;6.80;99.90;;;;;;5087795;28;20044;-46
2022/09/17 05:45:39;;;;;;;16.00;1.48;;;6.80;99.90;;;;;;5069242;28;20120;-47
2022/09/17 05:48:08;;;;;;;18.10;1.48;;;7.70;99.90;;;;;;5087699;28;20059;-47
2022/09/17 05:50:34;;;;;;;15.75;1.02;;;6.90;99.90;;;;;;5087275;28;20048;-48
2022/09/17 05:53:10;;;;;;;11.02;1.67;;;6.90;99.90;;;;;;5088053;28;20051;-46
2022/09/17 05:55:36;;;;;;;15.98;0.90;;;7.00;99.90;;;;;;5086875;28;20036;-47
2022/09/17 05:58:13;;;;;;;12.85;1.27;;;8.10;99.90;;;;;;5069819;28;20052;-46
2022/09/17 06:00:39;;;;;;;17.08;2.45;;;7.40;99.90;;;;;;5087262;28;20040;-46
2022/09/17 06:03:05;;;;;;;22.20;1.52;;;7.80;99.90;;;;;;5087565;28;20054;-47
2022/09/17 06:05:31;;;;;;;22.55;1.58;;;8.10;99.90;;;;;;5087290;28;20397;-47
2022/09/17 06:07:56;;;;;;;18.55;2.10;;;8.30;99.90;;;;;;5086342;28;20048;-45
2022/09/17 06:10:22;;;;;;;17.55;1.77;;;8.60;99.90;;;;;;5086670;28;20478;-48
2022/09/17 06:12:54;;;;;;;14.10;1.58;;;8.70;99.90;;;;;;5086979;28;20051;-48
2022/09/17 06:15:20;;;;;;;11.50;1.23;;;8.70;99.90;;;;;;5086284;28;20401;-46
2022/09/17 06:17:46;;;;;;;11.18;1.55;;;8.60;99.90;;;;;;5086109;28;20040;-46
2022/09/17 06:20:11;;;;;;;11.25;1.15;;;8.70;99.90;;;;;;5085029;28;20124;-47
2022/09/17 06:22:37;;;;;;;17.20;1.42;;;8.90;99.90;;;;;;5086407;28;20093;-45
2022/09/17 06:25:03;;;;;;;17.13;1.17;;;8.80;99.90;;;;;;5086695;28;20070;-46
2022/09/17 06:27:33;;;;;;;7.72;0.80;;;8.90;99.90;;;;;;5084915;28;20046;-46
2022/09/17 06:29:59;;;;;;;11.77;0.65;;;8.80;99.90;;;;;;5084203;28;20116;-45
2022/09/17 06:32:25;;;;;;;13.52;1.17;;;8.80;99.90;;;;;;5085309;28;20089;-45
2022/09/17 06:34:51;;;;;;;7.60;0.80;;;8.80;99.90;;;;;;5085387;28;20039;-46
2022/09/17 06:37:17;;;;;;;15.82;0.90;;;8.80;99.90;;;;;;5085844;28;20557;-46
2022/09/17 06:39:43;;;;;;;13.25;0.82;;;9.30;99.90;;;;;;5085179;28;20125;-45
2022/09/17 06:42:09;;;;;;;10.25;1.40;;;8.70;99.90;;;;;;5086121;28;20131;-45
2022/09/17 06:44:35;;;;;;;6.57;0.75;;;8.60;99.90;;;;;;5085465;28;20082;-47
2022/09/17 06:47:00;;;;;;;11.18;0.60;;;8.60;99.90;;;;;;5086276;28;20375;-50
2022/09/17 06:49:27;;;;;;;7.07;0.47;;;8.60;99.90;;;;;;5086026;28;20556;-49
2022/09/17 06:51:53;;;;;;;11.68;1.08;;;8.40;99.90;;;;;;5085041;28;20071;-50
2022/09/17 06:54:18;;;;;;;8.05;0.70;;;8.40;99.90;;;;;;5086045;28;20071;-48
2022/09/17 06:56:46;;;;;;;10.38;0.63;;;8.30;99.90;;;;;;5085699;28;20044;-50
2022/09/17 06:59:12;;;;;;;10.65;0.63;;;8.40;99.90;;;;;;5067598;28;20092;-47
2022/09/17 07:01:37;;;;;;;7.00;0.47;;;8.50;99.90;;;;;;5086062;28;20043;-49
2022/09/17 07:04:03;;;;;;;8.40;1.38;;;8.70;99.90;;;;;;5085598;28;20082;-48
2022/09/17 07:06:29;;;;;;;7.60;0.52;;;9.10;99.90;;;;;;5085749;28;20076;-46
2022/09/17 07:08:54;;;;;;;8.32;0.35;;;9.50;99.90;;;;;;5085885;28;20056;-46
2022/09/17 07:11:20;;;;;;;6.13;0.57;;;9.40;99.90;;;;;;5086001;28;20060;-45
2022/09/17 07:13:46;;;;;;;9.07;0.80;;;9.50;99.90;;;;;;5085780;28;20040;-46
2022/09/17 07:16:11;;;;;;;13.82;0.80;;;9.50;99.90;;;;;;5085621;28;20036;-48
2022/09/17 07:18:38;;;;;;;6.35;0.50;;;9.30;99.90;;;;;;5085326;28;20749;-43
2022/09/17 07:21:05;;;;;;;9.77;0.70;;;9.40;99.90;;;;;;5085897;28;20044;-46
2022/09/17 07:23:33;;;;;;;14.15;0.57;;;9.40;99.90;;;;;;5083466;28;20032;-43
2022/09/17 07:26:05;;;;;;;6.20;0.30;;;9.40;99.90;;;;;;5084819;28;20115;-45
2022/09/17 07:28:31;;;;;;;7.35;0.50;;;9.50;99.90;;;;;;5084863;28;20103;-46
2022/09/17 07:30:57;;;;;;;8.40;1.35;;;9.50;99.90;;;;;;5084883;28;20047;-44
2022/09/17 07:33:25;;;;;;;7.25;1.00;;;9.60;99.90;;;;;;5085759;28;20032;-44
2022/09/17 07:35:55;;;;;;;8.65;0.55;;;9.80;99.90;;;;;;5085619;28;20044;-45
2022/09/17 07:38:22;;;;;;;9.75;0.88;;;10.70;99.90;;;;;;5065709;28;20180;-45
2022/09/17 07:40:59;;;;;;;9.60;0.57;;;10.50;99.90;;;;;;5085779;28;20039;-43
2022/09/17 07:43:26;;;;;;;13.82;0.90;;;10.70;99.90;;;;;;5083649;28;20374;-45
2022/09/17 07:45:52;;;;;;;16.13;1.20;;;10.80;99.90;;;;;;5085762;28;20050;-45
2022/09/17 07:48:19;;;;;;;8.73;1.23;;;10.90;99.90;;;;;;5086086;28;20043;-47
2022/09/17 07:50:44;;;;;;;7.93;0.50;;;10.80;99.90;;;;;;5087751;28;20523;-45
2022/09/17 07:53:10;;;;;;;9.25;0.75;;;10.70;99.90;;;;;;5089199;28;20036;-44
2022/09/17 07:55:36;;;;;;;8.50;0.63;;;11.10;99.90;;;;;;5089128;28;20052;-45
2022/09/17 07:58:02;;;;;;;7.47;0.80;;;10.40;99.90;;;;;;5089449;28;20512;-43
2022/09/17 08:00:28;;;;;;;7.25;0.55;;;11.10;99.90;;;;;;5089163;28;20054;-44
2022/09/17 08:02:55;;;;;;;13.18;0.70;;;11.00;99.90;;;;;;5088730;28;20398;-43
2022/09/17 08:05:21;;;;;;;9.88;1.50;;;10.40;99.90;;;;;;5089212;28;20127;-46
2022/09/17 08:07:51;;;;;;;11.10;1.27;;;11.10;99.90;;;;;;5089181;28;20109;-45
2022/09/17 08:10:20;;;;;;;9.70;0.93;;;11.10;99.90;;;;;;5090219;28;20677;-45
2022/09/17 08:12:53;;;;;;;14.70;1.48;;;11.50;99.90;;;;;;5086485;28;20342;-44
2022/09/17 08:15:19;;;;;;;11.18;1.00;;;12.10;99.90;;;;;;5088954;28;20036;-46
2022/09/17 08:17:45;;;;;;;17.45;1.08;;;12.50;99.90;;;;;;5088731;28;20521;-45
2022/09/17 08:20:12;;;;;;;7.55;0.50;;;12.80;99.90;;;;;;5089164;28;20507;-45
2022/09/17 08:22:38;;;;;;;15.80;1.17;;;12.70;99.90;;;;;;5088544;28;20390;-45
2022/09/17 08:25:05;;;;;;;3.95;0.32;;;12.40;99.90;;;;;;5088872;28;20039;-45
2022/09/17 08:27:31;;;;;;;8.27;1.70;;;12.20;99.90;;;;;;5088790;28;20048;-46
2022/09/17 08:29:57;;;;;;;9.95;0.60;;;12.10;99.90;;;;;;5088821;28;20039;-44
2022/09/17 08:32:23;;;;;;;7.55;0.82;;;12.20;99.90;;;;;;5088625;28;20073;-43
2022/09/17 08:34:49;;;;;;;5.72;0.45;;;12.60;99.90;;;;;;5088695;28;20087;-44
2022/09/17 08:37:15;;;;;;;3.53;0.35;;;12.90;99.90;;;;;;5088838;28;20036;-46
2022/09/17 08:39:41;;;;;;;7.68;0.50;;;13.10;99.90;;;;;;5089137;28;20123;-48
2022/09/17 08:42:30;;;;;;;4.53;0.40;;;12.90;99.90;;;;;;5088375;28;20077;-44
2022/09/17 08:44:56;;;;;;;2.58;0.20;;;12.60;99.90;;;;;;5087388;28;20455;-44
2022/09/17 08:47:27;;;;;;;4.70;0.25;;;12.70;99.90;;;;;;5089129;28;20459;-44
2022/09/17 08:49:55;;;;;;;3.70;0.22;;;13.00;99.90;;;;;;5088416;28;20043;-46
2022/09/17 08:52:49;;;;;;;4.38;0.32;;;13.70;99.90;;;;;;5088242;28;20111;-44
2022/09/17 08:55:42;;;;;;;4.97;0.38;;;13.70;99.90;;;;;;5086940;28;20040;-45
2022/09/17 08:58:22;;;;;;;5.15;0.63;;;14.00;99.90;;;;;;5086128;28;20142;-45
2022/09/17 09:01:20;;;;;;;3.40;0.68;;;15.20;99.90;;;;;;5086143;28;20109;-48
2022/09/17 09:04:11;;;;;;;3.85;0.25;;;16.60;99.90;;;;;;5084431;28;20059;-44
2022/09/17 09:07:13;;;;;;;6.68;0.98;;;17.60;99.90;;;;;;5087735;28;20078;-44
2022/09/17 09:10:02;;;;;;;5.18;0.40;;;17.10;99.90;;;;;;5066596;28;20059;-45
2022/09/17 09:12:32;;;;;;;4.43;0.40;;;17.10;99.90;;;;;;5075020;28;20047;-45
2022/09/17 09:15:04;;;;;;;5.15;0.60;;;17.10;99.90;;;;;;5087739;28;20048;-44
2022/09/17 09:17:41;;;;;;;5.25;0.35;;;17.10;99.90;;;;;;5083929;28;20036;-49
2022/09/17 09:20:35;;;;;;;5.10;0.30;;;16.70;99.90;;;;;;5084951;28;20035;-44
2022/09/17 09:23:25;;;;;;;5.32;0.50;;;16.40;99.90;;;;;;5086540;28;20498;-45
2022/09/17 09:26:18;;;;;;;7.25;0.43;;;15.80;99.90;;;;;;5085398;28;20105;-45
2022/09/17 09:29:00;;;;;;;4.35;0.32;;;15.10;99.90;;;;;;5084927;28;20134;-44
2022/09/17 09:31:58;;;;;;;8.13;0.30;;;14.60;99.90;;;;;;5087172;28;20047;-44
2022/09/17 09:34:27;;;;;;;3.25;0.30;;;14.20;99.90;;;;;;5086793;28;20043;-44
2022/09/17 09:37:31;;;;;;;5.13;0.35;;;14.20;99.90;;;;;;5086948;28;20032;-46
2022/09/17 09:40:17;;;;;;;3.08;0.40;;;14.50;99.90;;;;;;5042211;28;20529;-46
2022/09/17 09:42:43;;;;;;;5.95;0.52;;;14.50;99.90;;;;;;5087779;28;20048;-45
2022/09/17 09:45:16;;;;;;;4.38;0.20;;;14.40;99.90;;;;;;5087686;28;20552;-44
2022/09/17 09:47:41;;;;;;;5.63;0.60;;;14.20;99.90;;;;;;5086196;28;20398;-47
2022/09/17 09:50:16;;;;;;;4.35;0.40;;;14.00;99.90;;;;;;5090110;28;20056;-49
2022/09/17 09:53:13;;;;;;;2.88;0.20;;;13.70;99.90;;;;;;5091061;28;20047;-49
2022/09/17 09:55:46;;;;;;;5.78;0.50;;;13.70;99.90;;;;;;5065601;28;20045;-51
2022/09/17 09:58:28;;;;;;;8.20;0.32;;;13.60;99.90;;;;;;5069516;28;20050;-50
2022/09/17 10:00:54;;;;;;;4.95;0.50;;;13.40;99.90;;;;;;5072654;28;20082;-47
2022/09/17 10:03:22;;;;;;;1.65;0.20;;;13.70;99.90;;;;;;5073348;28;20622;-48
2022/09/17 10:05:59;;;;;;;1.73;0.15;;;13.00;99.90;;;;;;5072717;28;20051;-51
2022/09/17 10:08:27;;;;;;;5.88;0.75;;;12.60;99.90;;;;;;5080095;28;20411;-50
2022/09/17 10:10:59;;;;;;;3.65;0.30;;;12.30;99.90;;;;;;5093477;28;20115;-47
2022/09/17 10:13:28;;;;;;;4.00;0.32;;;12.10;99.90;;;;;;5092309;28;20039;-49
2022/09/17 10:15:53;;;;;;;5.22;0.20;;;12.10;99.90;;;;;;5093108;28;20032;-48
2022/09/17 10:18:22;;;;;;;3.95;0.25;;;12.40;99.90;;;;;;5093000;28;20059;-49
2022/09/17 10:20:50;;;;;;;7.50;0.30;;;12.40;99.90;;;;;;5092611;28;20090;-47
2022/09/17 10:23:16;;;;;;;8.00;0.50;;;12.40;99.90;;;;;;5092239;28;20040;-48
2022/09/17 10:25:42;;;;;;;7.72;0.73;;;12.40;99.90;;;;;;5092405;28;20564;-51
2022/09/17 10:28:34;;;;;;;10.65;0.70;;;12.60;99.90;;;;;;5092236;28;20044;-48
2022/09/17 10:31:05;;;;;;;8.40;0.80;;;12.90;99.90;;;;;;5093243;28;20040;-47
2022/09/17 10:33:32;;;;;;;7.05;0.55;;;13.20;99.90;;;;;;5091610;28;20126;-48
2022/09/17 10:36:16;;;;;;;6.78;0.40;;;13.10;99.90;;;;;;5090232;28;20047;-51
2022/09/17 10:38:48;;;;;;;7.63;0.43;;;13.00;99.90;;;;;;5090214;28;20058;-51
2022/09/17 10:41:23;;;;;;;7.88;0.43;;;12.80;99.90;;;;;;5090814;28;20044;-51
2022/09/17 10:43:50;;;;;;;7.10;0.40;;;13.00;99.90;;;;;;5090888;28;20035;-48
2022/09/17 10:46:28;;;;;;;10.38;0.60;;;13.00;99.90;;;;;;5090712;28;20071;-50
2022/09/17 10:49:17;;;;;;;15.98;1.95;;;13.00;99.90;;;;;;5090437;28;20047;-48
2022/09/17 10:51:43;;;;;;;11.00;1.27;;;12.90;99.90;;;;;;5090856;28;20505;-51
2022/09/17 10:54:12;;;;;;;7.00;0.63;;;13.20;99.90;;;;;;5090630;28;20119;-49
2022/09/17 10:56:43;;;;;;;5.15;0.60;;;12.80;99.90;;;;;;5090463;28;20051;-51
2022/09/17 10:59:43;;;;;;;7.32;0.80;;;12.70;99.90;;;;;;5090204;28;20147;-47
2022/09/17 11:02:31;;;;;;;11.02;1.23;;;12.70;99.90;;;;;;5090191;28;20044;-51
2022/09/17 11:05:23;;;;;;;8.70;0.55;;;12.60;99.90;;;;;;5090256;28;20090;-48
2022/09/17 11:08:08;;;;;;;10.18;0.75;;;12.60;99.90;;;;;;5090088;28;20065;-48
2022/09/17 11:10:44;;;;;;;9.13;1.63;;;12.60;99.90;;;;;;5090775;28;20551;-48
2022/09/17 11:13:40;;;;;;;10.02;0.77;;;12.60;99.90;;;;;;5089813;28;20108;-48
2022/09/17 11:16:43;;;;;;;8.88;0.60;;;12.60;99.90;;;;;;5090001;28;20058;-48
2022/09/17 11:19:17;;;;;;;8.63;1.00;;;12.80;99.90;;;;;;5090324;28;20036;-51
2022/09/17 11:22:02;;;;;;;11.68;1.83;;;12.90;99.90;;;;;;5090061;28;20040;-47
2022/09/17 11:24:44;;;;;;;7.32;1.00;;;13.00;99.90;;;;;;5091788;28;20040;-51
2022/09/17 11:27:16;;;;;;;10.02;1.05;;;13.00;99.90;;;;;;5094118;28;20044;-51
2022/09/17 11:30:06;;;;;;;7.35;0.80;;;13.40;99.90;;;;;;5093584;28;20082;-48
2022/09/17 11:32:53;;;;;;;10.45;0.73;;;13.10;99.90;;;;;;5093077;28;20118;-50
2022/09/17 11:35:44;;;;;;;9.40;0.60;;;13.40;99.90;;;;;;5092646;28;20036;-50
2022/09/17 11:38:12;;;;;;;17.70;1.85;;;13.90;99.90;;;;;;5091449;28;20122;-49
2022/09/17 11:40:57;;;;;;;9.20;1.05;;;13.70;99.90;;;;;;5092965;28;20512;-49
2022/09/17 11:43:30;;;;;;;8.38;0.75;;;14.00;99.90;;;;;;5092825;28;20109;-50
2022/09/17 11:46:20;;;;;;;10.07;2.05;;;14.00;99.90;;;;;;5093992;28;20040;-48
2022/09/17 11:49:15;;;;;;;9.40;1.05;;;14.00;99.90;;;;;;5073457;28;20176;-49
2022/09/17 11:51:51;;;;;;;8.80;0.60;;;14.10;99.90;;;;;;5089042;28;20392;-50
2022/09/17 11:54:54;;;;;;;9.48;0.93;;;14.30;99.90;;;;;;5091891;28;20027;-48
2022/09/17 11:57:31;;;;;;;8.15;0.63;;;14.50;99.90;;;;;;5091933;28;20035;-48
2022/09/17 12:00:17;;;;;;;7.97;0.55;;;14.90;99.90;;;;;;5092049;28;20040;-52
2022/09/17 12:03:11;;;;;;;12.48;1.85;;;15.10;99.90;;;;;;5090980;28;20067;-48
2022/09/17 12:05:50;;;;;;;10.35;0.82;;;15.40;99.90;;;;;;5073461;28;20119;-48
2022/09/17 12:08:37;;;;;;;10.05;0.70;;;15.70;99.90;;;;;;5091098;28;20444;-51
2022/09/17 12:11:18;;;;;;;9.93;0.82;;;15.90;99.90;;;;;;5091166;28;20035;-52
2022/09/17 12:14:05;;;;;;;5.00;0.50;;;16.00;99.90;;;;;;5093180;28;20544;-48
2022/09/17 12:16:37;;;;;;;5.85;0.70;;;15.80;99.90;;;;;;5091659;28;20032;-49
2022/09/17 12:19:11;;;;;;;6.75;0.40;;;15.80;99.90;;;;;;5090903;28;20042;-51
2022/09/17 12:21:43;;;;;;;6.47;0.98;;;15.70;99.90;;;;;;5091958;28;20036;-49
2022/09/17 12:24:25;;;;;;;8.90;1.13;;;15.60;99.90;;;;;;5090656;28;20042;-47
2022/09/17 12:27:23;;;;;;;12.40;1.58;;;15.50;99.90;;;;;;5090647;28;20111;-48
2022/09/17 12:30:12;;;;;;;12.15;1.73;;;15.30;99.90;;;;;;5070121;28;20044;-50
2022/09/17 12:32:47;;;;;;;15.95;1.88;;;15.00;99.90;;;;;;5091047;28;20517;-50
2022/09/17 12:35:19;;;;;;;11.18;0.98;;;14.70;99.90;;;;;;5091619;28;20067;-48
2022/09/17 12:37:56;;;;;;;9.88;1.17;;;14.40;99.90;;;;;;5090790;28;20126;-48
2022/09/17 12:40:52;;;;;;;11.60;1.08;;;14.20;99.90;;;;;;5089769;28;20101;-49
2022/09/17 12:43:37;;;;;;;12.55;0.80;;;14.20;99.90;;;;;;5092333;28;20541;-47
2022/09/17 12:46:33;;;;;;;14.02;1.80;;;14.00;99.90;;;;;;5092326;28;20052;-48
2022/09/17 12:49:08;;;;;;;9.02;0.88;;;14.00;99.90;;;;;;5065539;28;20040;-45
2022/09/17 12:52:00;;;;;;;12.95;0.80;;;14.00;99.90;;;;;;5069831;28;20119;-56
2022/09/17 12:54:34;;;;;;;7.90;0.77;;;14.20;99.90;;;;;;5085440;28;20031;-56
2022/09/17 12:57:26;;;;;;;12.70;1.60;;;14.50;99.90;;;;;;5084153;28;20864;-57
2022/09/17 13:00:13;;;;;;;9.48;0.80;;;14.40;99.90;;;;;;5084679;28;20044;-52
2022/09/17 13:02:48;;;;;;;11.35;1.55;;;14.20;99.90;;;;;;5066033;28;20130;-46
2022/09/17 13:05:40;;;;;;;7.00;0.70;;;14.10;99.90;;;;;;5085836;28;20036;-44
2022/09/17 13:08:15;;;;;;;5.53;0.40;;;13.90;99.90;;;;;;5083854;28;20056;-49
2022/09/17 13:11:18;;;;;;;9.45;1.27;;;13.80;99.90;;;;;;5085243;28;20606;-47
2022/09/17 13:14:03;;;;;;;9.20;0.85;;;13.80;99.90;;;;;;5083509;28;20566;-48
2022/09/17 13:16:45;;;;;;;7.30;0.57;;;13.80;99.90;;;;;;5082692;28;20047;-47
2022/09/17 13:19:35;;;;;;;9.95;1.08;;;13.90;99.90;;;;;;5083421;28;20043;-45
2022/09/17 13:22:08;;;;;;;8.38;0.60;;;13.80;99.90;;;;;;5062827;28;20538;-42
2022/09/17 13:24:36;;;;;;;9.98;0.90;;;13.60;99.90;;;;;;5081647;28;20488;-45
2022/09/17 13:27:03;;;;;;;8.52;0.80;;;13.90;99.90;;;;;;5085548;28;20047;-44
2022/09/17 13:29:44;;;;;;;7.72;0.57;;;13.40;99.90;;;;;;5083499;28;20044;-47